createdAt,value
2023-04-26T00:01:05.126Z,8.80
2023-04-26T00:05:07.737Z,8.68
2023-04-26T00:09:09.756Z,8.64
2023-04-26T00:13:11.336Z,8.60
2023-04-26T00:17:13.049Z,8.61
2023-04-26T00:21:14.707Z,8.63
2023-04-26T00:25:16.341Z,8.61
2023-04-26T00:29:17.937Z,8.60
2023-04-26T00:33:19.486Z,8.57
2023-04-26T00:37:21.684Z,8.55
2023-04-26T00:41:24.210Z,8.54
2023-04-26T00:45:26.591Z,8.54
2023-04-26T00:49:28.407Z,8.45
2023-04-26T00:53:30.934Z,8.34
2023-04-26T00:57:32.514Z,8.31
2023-04-26T01:01:35.574Z,8.24
2023-04-26T01:05:38.582Z,8.18
2023-04-26T01:09:40.640Z,8.09
2023-04-26T01:13:42.522Z,8.04
2023-04-26T01:17:46.857Z,7.99
2023-04-26T01:21:48.481Z,7.94
2023-04-26T01:25:50.318Z,7.88
2023-04-26T01:29:51.863Z,7.88
2023-04-26T01:33:53.456Z,7.88
2023-04-26T01:37:55.113Z,7.76
2023-04-26T01:41:58.554Z,7.71
2023-04-26T01:46:00.233Z,7.69
2023-04-26T01:50:05.176Z,7.63
2023-04-26T01:54:06.711Z,7.54
2023-04-26T01:58:08.245Z,7.52
2023-04-26T02:02:09.978Z,7.47
2023-04-26T02:06:13.031Z,7.41
2023-04-26T02:10:14.582Z,7.26
2023-04-26T02:14:16.150Z,7.21
2023-04-26T02:18:21.716Z,7.16
2023-04-26T02:22:25.386Z,6.99
2023-04-26T02:26:26.956Z,6.81
2023-04-26T02:30:28.669Z,6.83
2023-04-26T02:34:30.275Z,6.86
2023-04-26T02:38:36.365Z,6.86
2023-04-26T02:42:39.592Z,6.86
2023-04-26T02:46:41.868Z,6.83
2023-04-26T02:50:43.482Z,6.82
2023-04-26T02:54:46.934Z,6.81
2023-04-26T02:58:48.476Z,6.83
2023-04-26T03:02:50.955Z,6.82
2023-04-26T03:06:53.035Z,6.72
2023-04-26T03:10:54.644Z,6.65
2023-04-26T03:14:56.410Z,6.55
2023-04-26T03:18:59.552Z,6.54
2023-04-26T03:23:01.212Z,6.51
2023-04-26T03:27:02.857Z,6.51
2023-04-26T03:31:04.543Z,6.48
2023-04-26T03:35:06.830Z,6.43
2023-04-26T03:39:08.429Z,6.43
2023-04-26T03:43:10.382Z,6.39
2023-04-26T03:47:15.791Z,6.39
2023-04-26T03:51:17.439Z,6.38
2023-04-26T03:55:19.071Z,6.30
2023-04-26T03:59:20.952Z,6.32
2023-04-26T04:03:23.171Z,6.30
2023-04-26T04:07:26.535Z,6.28
2023-04-26T04:11:28.136Z,6.25
2023-04-26T04:15:29.802Z,6.20
2023-04-26T04:19:31.685Z,6.05
2023-04-26T04:23:33.249Z,6.05
2023-04-26T04:27:38.573Z,6.02
2023-04-26T04:31:41.045Z,6.03
2023-04-26T04:35:44.760Z,6.02
2023-04-26T04:39:46.673Z,6.02
2023-04-26T04:43:49.123Z,5.96
2023-04-26T04:47:50.829Z,6.02
2023-04-26T04:51:53.071Z,6.11
2023-04-26T04:55:54.787Z,6.13
2023-04-26T04:59:56.648Z,6.19
2023-04-26T05:03:58.904Z,6.28
2023-04-26T05:08:01.116Z,6.32
2023-04-26T05:12:02.970Z,6.33
2023-04-26T05:16:06.420Z,6.33
2023-04-26T05:20:08.701Z,6.36
2023-04-26T05:24:10.501Z,6.39
2023-04-26T05:28:13.916Z,6.42
2023-04-26T05:32:36.799Z,6.46
2023-04-26T05:36:49.111Z,6.53
2023-04-26T05:40:51.043Z,6.57
2023-04-26T05:44:58.771Z,6.57
2023-04-26T05:49:00.403Z,6.60
2023-04-26T05:53:03.107Z,6.69
2023-04-26T05:57:04.901Z,6.76
2023-04-26T06:01:07.000Z,6.83
2023-04-26T06:05:09.418Z,6.94
2023-04-26T06:09:11.227Z,7.00
2023-04-26T06:13:12.859Z,7.12
2023-04-26T06:17:14.642Z,7.19
2023-04-26T06:21:17.469Z,7.27
2023-04-26T06:25:19.124Z,7.33
2023-04-26T06:29:21.788Z,7.41
2023-04-26T06:33:23.652Z,7.39
2023-04-26T06:37:25.307Z,7.42
2023-04-26T06:41:27.026Z,7.44
2023-04-26T06:45:28.845Z,7.54
2023-04-26T06:49:30.442Z,7.60
2023-04-26T06:53:32.002Z,7.70
2023-04-26T06:57:33.598Z,7.82
2023-04-26T07:01:35.971Z,7.88
2023-04-26T07:05:39.515Z,7.94
2023-04-26T07:09:41.186Z,7.96
2023-04-26T07:13:42.825Z,8.09
2023-04-26T07:17:44.404Z,8.22
2023-04-26T07:21:46.030Z,8.39
2023-04-26T07:25:47.610Z,8.57
2023-04-26T07:29:53.190Z,8.76
2023-04-26T07:33:55.011Z,8.82
2023-04-26T07:37:57.105Z,8.89
2023-04-26T07:41:58.645Z,8.97
2023-04-26T07:46:02.094Z,9.13
2023-04-26T07:50:04.254Z,9.30
2023-04-26T07:54:06.224Z,9.48
2023-04-26T07:58:08.137Z,9.53
2023-04-26T08:02:09.968Z,9.68
2023-04-26T08:06:11.727Z,9.81
2023-04-26T08:10:13.371Z,9.95
2023-04-26T08:14:14.967Z,10.02
2023-04-26T08:18:16.778Z,10.09
2023-04-26T08:22:18.372Z,10.18
2023-04-26T08:26:20.113Z,10.26
2023-04-26T08:30:21.805Z,10.29
2023-04-26T08:34:23.426Z,10.43
2023-04-26T08:38:25.297Z,10.55
2023-04-26T08:42:28.434Z,10.69
2023-04-26T08:46:36.914Z,10.81
2023-04-26T08:50:40.518Z,10.94
2023-04-26T08:54:42.125Z,11.06
2023-04-26T08:58:43.775Z,11.27
2023-04-26T09:02:52.879Z,11.49
2023-04-26T09:07:00.450Z,11.82
2023-04-26T09:11:03.322Z,12.12
2023-04-26T09:15:09.337Z,12.34
2023-04-26T09:19:11.002Z,12.52
2023-04-26T09:23:12.527Z,12.54
2023-04-26T09:27:14.592Z,12.69
2023-04-26T09:31:40.965Z,12.76
2023-04-26T09:35:43.940Z,12.67
2023-04-26T09:39:45.776Z,12.69
2023-04-26T09:43:50.099Z,12.84
2023-04-26T09:47:51.792Z,12.76
2023-04-26T09:52:04.096Z,12.73
2023-04-26T09:56:09.565Z,12.74
2023-04-26T10:00:12.447Z,13.12
2023-04-26T10:04:14.390Z,13.51
2023-04-26T10:08:16.513Z,13.76
2023-04-26T10:12:19.537Z,13.96
2023-04-26T10:16:21.813Z,13.98
2023-04-26T10:20:26.987Z,14.08
2023-04-26T10:24:28.672Z,14.12
2023-04-26T10:28:45.451Z,14.24
2023-04-26T10:33:07.224Z,14.46
2023-04-26T10:37:18.249Z,14.56
2023-04-26T10:41:34.865Z,14.44
2023-04-26T10:45:37.806Z,14.45
2023-04-26T10:49:47.163Z,14.60
2023-04-26T10:53:48.796Z,14.53
2023-04-26T10:57:52.380Z,14.57
2023-04-26T11:01:54.190Z,14.60
2023-04-26T11:05:55.926Z,14.71
2023-04-26T11:10:00.612Z,14.49
2023-04-26T11:14:02.379Z,14.34
2023-04-26T11:18:05.111Z,14.48
2023-04-26T11:22:08.214Z,14.57
2023-04-26T11:26:09.826Z,14.63
2023-04-26T11:30:12.396Z,14.59
2023-04-26T11:34:13.955Z,14.69
2023-04-26T11:38:15.951Z,14.83
2023-04-26T11:42:17.594Z,15.13
2023-04-26T11:46:20.727Z,15.22
2023-04-26T11:50:26.631Z,15.43
2023-04-26T11:54:30.222Z,15.59
2023-04-26T11:58:31.841Z,15.67
2023-04-26T12:02:35.842Z,15.84
2023-04-26T12:06:45.754Z,15.96
2023-04-26T12:10:47.382Z,16.11
2023-04-26T12:14:49.033Z,15.88
2023-04-26T12:18:51.972Z,15.86
2023-04-26T12:23:11.419Z,15.77
2023-04-26T12:27:20.989Z,15.78
2023-04-26T12:31:22.635Z,15.99
2023-04-26T12:35:25.270Z,16.13
2023-04-26T12:39:26.917Z,16.40
2023-04-26T12:43:28.542Z,16.70
2023-04-26T12:47:31.752Z,16.87
2023-04-26T12:51:33.935Z,16.87
2023-04-26T12:55:35.578Z,17.00
2023-04-26T12:59:37.131Z,17.10
2023-04-26T13:03:39.512Z,17.09
2023-04-26T13:07:43.567Z,16.92
2023-04-26T13:11:45.572Z,16.80
2023-04-26T13:15:47.179Z,17.05
2023-04-26T13:19:48.797Z,17.24
2023-04-26T13:23:50.440Z,17.63
2023-04-26T13:27:53.665Z,17.83
2023-04-26T13:31:56.289Z,18.14
2023-04-26T13:35:57.921Z,18.05
2023-04-26T13:39:59.961Z,18.13
2023-04-26T13:44:03.036Z,18.28
2023-04-26T13:48:04.725Z,17.96
2023-04-26T13:52:06.370Z,17.80
2023-04-26T13:56:09.466Z,18.28
2023-04-26T14:00:12.245Z,18.42
2023-04-26T14:04:13.972Z,18.60
2023-04-26T14:08:16.046Z,18.86
2023-04-26T14:12:18.918Z,19.01
2023-04-26T14:16:20.728Z,19.05
2023-04-26T14:20:22.473Z,18.96
2023-04-26T14:24:24.208Z,19.07
2023-04-26T14:28:25.881Z,19.21
2023-04-26T14:32:27.797Z,19.42
2023-04-26T14:36:29.410Z,19.62
2023-04-26T14:40:31.625Z,19.85
2023-04-26T14:44:33.306Z,19.78
2023-04-26T14:48:34.955Z,19.28
2023-04-26T14:52:37.376Z,18.93
2023-04-26T14:56:39.034Z,18.56
2023-04-26T15:00:40.701Z,18.60
2023-04-26T15:04:42.452Z,18.47
2023-04-26T15:08:44.459Z,18.42
2023-04-26T15:12:45.992Z,18.10
2023-04-26T15:16:47.637Z,17.96
2023-04-26T15:20:49.163Z,17.81
2023-04-26T15:24:51.197Z,17.54
2023-04-26T15:28:52.859Z,17.40
2023-04-26T15:32:54.417Z,17.27
2023-04-26T15:37:00.231Z,17.07
2023-04-26T15:41:02.816Z,17.03
2023-04-26T15:45:05.124Z,17.06
2023-04-26T15:49:07.133Z,17.17
2023-04-26T15:53:08.956Z,17.24
2023-04-26T15:57:10.597Z,17.38
2023-04-26T16:01:12.541Z,17.63
2023-04-26T16:05:14.245Z,18.11
2023-04-26T16:09:25.346Z,18.42
2023-04-26T16:13:28.345Z,18.47
2023-04-26T16:17:30.575Z,18.16
2023-04-26T16:21:33.698Z,17.95
2023-04-26T16:25:35.468Z,18.09
2023-04-26T16:29:37.107Z,18.16
2023-04-26T16:33:38.757Z,17.99
2023-04-26T16:37:41.731Z,17.57
2023-04-26T16:41:43.609Z,17.27
2023-04-26T16:45:45.152Z,17.10
2023-04-26T16:49:46.858Z,16.98
2023-04-26T16:53:48.881Z,16.87
2023-04-26T16:57:50.778Z,16.98
2023-04-26T17:01:53.232Z,16.91
2023-04-26T17:05:54.874Z,16.80
2023-04-26T17:09:56.401Z,16.57
2023-04-26T17:13:58.006Z,16.45
2023-04-26T17:18:01.428Z,16.29
2023-04-26T17:22:02.993Z,16.14
2023-04-26T17:26:04.756Z,16.11
2023-04-26T17:30:07.198Z,16.07
2023-04-26T17:34:08.843Z,15.88
2023-04-26T17:38:10.486Z,15.68
2023-04-26T17:42:12.106Z,15.66
2023-04-26T17:46:14.150Z,15.56
2023-04-26T17:50:15.952Z,15.52
2023-04-26T17:54:17.868Z,15.48
2023-04-26T17:58:19.490Z,15.41
2023-04-26T18:02:21.191Z,15.38
2023-04-26T18:06:22.870Z,15.33
2023-04-26T18:10:24.458Z,15.28
2023-04-26T18:14:26.528Z,15.22
2023-04-26T18:18:28.197Z,15.15
2023-04-26T18:22:29.812Z,15.07
2023-04-26T18:26:31.370Z,14.98
2023-04-26T18:30:33.000Z,14.93
2023-04-26T18:34:34.734Z,14.85
2023-04-26T18:38:36.439Z,14.78
2023-04-26T18:42:38.881Z,14.63
2023-04-26T18:46:41.543Z,14.56
2023-04-26T18:50:51.145Z,14.48
2023-04-26T18:54:52.723Z,14.45
2023-04-26T18:58:56.275Z,14.38
2023-04-26T19:02:57.949Z,14.36
2023-04-26T19:07:00.822Z,14.34
2023-04-26T19:11:02.437Z,14.30
2023-04-26T19:15:04.299Z,14.26
2023-04-26T19:19:05.954Z,14.19
2023-04-26T19:23:07.633Z,14.08
2023-04-26T19:27:09.297Z,14.06
2023-04-26T19:31:11.694Z,14.02
2023-04-26T19:35:13.767Z,13.94
2023-04-26T19:39:16.623Z,13.88
2023-04-26T19:43:18.422Z,13.86
2023-04-26T19:47:20.267Z,13.84
2023-04-26T19:51:22.259Z,13.79
2023-04-26T19:55:23.925Z,13.72
2023-04-26T19:59:25.701Z,13.63
2023-04-26T20:03:27.601Z,13.61
2023-04-26T20:07:29.514Z,13.55
2023-04-26T20:11:31.563Z,13.51
2023-04-26T20:15:33.836Z,13.47
2023-04-26T20:19:35.822Z,13.43
2023-04-26T20:23:37.772Z,13.32
2023-04-26T20:27:39.496Z,13.31
2023-04-26T20:31:41.180Z,13.25
2023-04-26T20:35:43.520Z,13.21
2023-04-26T20:39:45.499Z,13.19
2023-04-26T20:43:47.176Z,13.19
2023-04-26T20:47:48.860Z,13.16
2023-04-26T20:51:50.627Z,13.14
2023-04-26T20:55:53.202Z,13.03
2023-04-26T20:59:55.070Z,12.94
2023-04-26T21:03:56.711Z,12.92
2023-04-26T21:07:58.443Z,12.89
2023-04-26T21:12:00.008Z,12.85
2023-04-26T21:16:02.696Z,12.74
2023-04-26T21:20:05.230Z,12.73
2023-04-26T21:24:06.804Z,12.70
2023-04-26T21:28:08.367Z,12.62
2023-04-26T21:32:10.286Z,12.58
2023-04-26T21:36:11.971Z,12.44
2023-04-26T21:40:13.802Z,12.25
2023-04-26T21:44:15.654Z,12.11
2023-04-26T21:48:19.461Z,12.00
2023-04-26T21:52:21.052Z,12.00
2023-04-26T21:56:23.987Z,11.94
2023-04-26T22:00:27.093Z,11.88
2023-04-26T22:04:29.170Z,11.81
2023-04-26T22:08:30.756Z,11.78
2023-04-26T22:12:32.316Z,11.70
2023-04-26T22:16:33.985Z,11.67
2023-04-26T22:20:35.650Z,11.60
2023-04-26T22:24:37.319Z,11.51
2023-04-26T22:28:38.940Z,11.44
2023-04-26T22:32:40.632Z,11.39
2023-04-26T22:36:42.174Z,11.24
2023-04-26T22:40:43.704Z,11.19
2023-04-26T22:44:46.482Z,11.05
2023-04-26T22:48:48.052Z,11.05
2023-04-26T22:52:49.996Z,11.08
2023-04-26T22:56:51.897Z,10.99
2023-04-26T23:00:53.538Z,11.02
2023-04-26T23:04:55.290Z,11.02
2023-04-26T23:08:56.988Z,10.93
2023-04-26T23:12:58.766Z,10.84
2023-04-26T23:17:00.486Z,10.78
2023-04-26T23:21:02.480Z,10.58
2023-04-26T23:25:04.153Z,10.63
2023-04-26T23:29:05.930Z,10.55
2023-04-26T23:33:07.531Z,10.52
2023-04-26T23:37:09.144Z,10.52
2023-04-26T23:41:11.086Z,10.54
2023-04-26T23:45:12.807Z,10.44
2023-04-26T23:49:14.423Z,10.42
2023-04-26T23:53:16.224Z,10.36
2023-04-26T23:57:17.778Z,10.35
